createdAt,value
2023-05-09T00:01:12.966Z,10.20
2023-05-09T00:03:16.397Z,10.20
2023-05-09T00:05:19.634Z,10.30
2023-05-09T00:07:22.761Z,10.20
2023-05-09T00:09:26.736Z,10.20
2023-05-09T00:11:29.970Z,10.20
2023-05-09T00:13:34.048Z,10.20
2023-05-09T00:15:37.313Z,10.20
2023-05-09T00:17:42.348Z,10.30
2023-05-09T00:19:46.373Z,10.20
2023-05-09T00:21:49.605Z,10.20
2023-05-09T00:23:52.866Z,10.10
2023-05-09T00:25:56.109Z,10.00
2023-05-09T00:27:59.354Z,10.10
2023-05-09T00:30:02.844Z,10.10
2023-05-09T00:32:06.596Z,10.00
2023-05-09T00:34:11.338Z,10.20
2023-05-09T00:36:14.731Z,10.20
2023-05-09T00:38:17.918Z,10.20
2023-05-09T00:40:21.344Z,10.20
2023-05-09T00:42:24.554Z,10.20
2023-05-09T00:44:27.840Z,10.10
2023-05-09T00:46:31.137Z,10.10
2023-05-09T00:48:34.626Z,10.10
2023-05-09T00:50:39.454Z,10.20
2023-05-09T00:52:43.151Z,10.10
2023-05-09T00:54:46.364Z,10.10
2023-05-09T00:56:49.681Z,10.00
2023-05-09T00:58:53.958Z,10.00
2023-05-09T01:00:57.208Z,10.00
2023-05-09T01:03:00.527Z,10.00
2023-05-09T01:05:03.990Z,10.00
2023-05-09T01:07:15.290Z,9.90
2023-05-09T01:09:24.792Z,9.90
2023-05-09T01:11:37.034Z,9.90
2023-05-09T01:13:50.852Z,10.00
2023-05-09T01:16:01.742Z,10.10
2023-05-09T01:18:12.674Z,10.10
2023-05-09T01:20:25.014Z,10.10
2023-05-09T01:22:35.098Z,10.10
2023-05-09T01:25:01.492Z,10.10
2023-05-09T01:27:18.346Z,10.10
2023-05-09T01:29:35.680Z,10.10
2023-05-09T01:31:41.936Z,10.10
2023-05-09T01:33:47.755Z,10.20
2023-05-09T01:35:55.187Z,10.20
2023-05-09T01:38:00.092Z,10.20
2023-05-09T01:40:10.241Z,10.20
2023-05-09T01:42:14.253Z,10.20
2023-05-09T01:44:18.712Z,10.20
2023-05-09T01:46:24.050Z,10.10
2023-05-09T01:48:30.198Z,10.20
2023-05-09T01:50:35.581Z,10.20
2023-05-09T01:52:39.962Z,10.20
2023-05-09T01:54:44.999Z,10.20
2023-05-09T01:56:48.799Z,10.20
2023-05-09T01:58:53.573Z,10.30
2023-05-09T02:00:57.276Z,10.20
2023-05-09T02:03:03.360Z,10.20
2023-05-09T02:05:10.583Z,10.20
2023-05-09T02:07:14.705Z,10.20
2023-05-09T02:09:18.871Z,10.20
2023-05-09T02:11:22.612Z,10.40
2023-05-09T02:13:26.242Z,10.40
2023-05-09T02:15:31.054Z,10.50
2023-05-09T02:17:34.317Z,10.40
2023-05-09T02:19:39.309Z,10.40
2023-05-09T02:21:43.054Z,10.40
2023-05-09T02:23:46.576Z,10.50
2023-05-09T02:25:49.996Z,10.50
2023-05-09T02:27:54.847Z,10.50
2023-05-09T02:30:01.394Z,10.50
2023-05-09T02:32:05.575Z,10.40
2023-05-09T02:34:09.859Z,10.30
2023-05-09T02:38:21.573Z,10.20
2023-05-09T02:40:25.994Z,10.40
2023-05-09T02:42:30.219Z,10.50
2023-05-09T02:44:33.749Z,10.60
2023-05-09T02:46:37.011Z,10.80
2023-05-09T02:48:40.276Z,10.80
2023-05-09T02:50:44.367Z,10.90
2023-05-09T02:52:48.951Z,11.10
2023-05-09T02:54:52.310Z,11.10
2023-05-09T02:56:55.784Z,11.10
2023-05-09T02:58:58.985Z,11.10
2023-05-09T03:01:02.330Z,11.20
2023-05-09T03:03:06.111Z,11.00
2023-05-09T03:05:09.972Z,11.00
2023-05-09T03:07:13.718Z,11.10
2023-05-09T03:09:18.319Z,11.00
2023-05-09T03:11:22.060Z,11.00
2023-05-09T03:13:25.930Z,11.10
2023-05-09T03:15:29.262Z,10.90
2023-05-09T03:17:32.757Z,10.90
2023-05-09T03:19:36.151Z,11.00
2023-05-09T03:21:39.457Z,10.90
2023-05-09T03:23:42.729Z,10.70
2023-05-09T03:25:47.443Z,10.70
2023-05-09T03:27:50.672Z,10.80
2023-05-09T03:29:54.116Z,10.90
2023-05-09T03:31:57.376Z,11.00
2023-05-09T03:34:00.847Z,10.90
2023-05-09T03:36:04.151Z,10.80
2023-05-09T03:38:07.418Z,10.90
2023-05-09T03:40:11.490Z,10.80
2023-05-09T03:42:16.106Z,10.80
2023-05-09T03:44:19.384Z,10.90
2023-05-09T03:46:22.722Z,11.10
2023-05-09T03:48:25.972Z,11.10
2023-05-09T03:50:30.053Z,11.20
2023-05-09T03:52:33.328Z,11.20
2023-05-09T03:54:36.585Z,11.10
2023-05-09T03:56:39.808Z,11.30
2023-05-09T03:58:44.381Z,11.10
2023-05-09T04:00:47.929Z,11.30
2023-05-09T04:02:51.356Z,11.30
2023-05-09T04:04:54.696Z,11.40
2023-05-09T04:06:57.947Z,11.30
2023-05-09T04:09:01.188Z,11.40
2023-05-09T04:11:04.760Z,11.40
2023-05-09T04:13:08.124Z,11.30
2023-05-09T04:15:14.051Z,11.30
2023-05-09T04:17:17.535Z,11.20
2023-05-09T04:19:20.812Z,11.30
2023-05-09T04:21:24.120Z,11.40
2023-05-09T04:23:27.411Z,11.30
2023-05-09T04:25:31.744Z,11.50
2023-05-09T04:27:35.770Z,11.40
2023-05-09T04:29:39.466Z,11.70
2023-05-09T04:31:44.422Z,11.80
2023-05-09T04:33:47.760Z,11.80
2023-05-09T04:35:51.853Z,11.90
2023-05-09T04:37:55.862Z,11.90
2023-05-09T04:39:59.160Z,12.00
2023-05-09T04:42:02.897Z,12.00
2023-05-09T04:44:06.562Z,12.20
2023-05-09T04:46:09.982Z,12.10
2023-05-09T04:48:15.304Z,12.10
2023-05-09T04:50:18.880Z,12.00
2023-05-09T04:52:22.280Z,11.80
2023-05-09T04:54:26.179Z,11.60
2023-05-09T04:56:29.665Z,11.60
2023-05-09T04:58:34.517Z,11.50
2023-05-09T05:00:37.903Z,11.40
2023-05-09T05:02:41.323Z,11.30
2023-05-09T05:04:45.984Z,11.20
2023-05-09T05:06:49.472Z,11.00
2023-05-09T05:08:52.784Z,11.30
2023-05-09T05:10:56.179Z,11.40
2023-05-09T05:12:59.436Z,11.50
2023-05-09T05:15:02.706Z,11.30
2023-05-09T05:17:06.180Z,11.40
2023-05-09T05:19:09.564Z,11.50
2023-05-09T05:21:15.902Z,11.40
2023-05-09T05:23:19.446Z,11.50
2023-05-09T05:25:22.735Z,11.60
2023-05-09T05:27:26.316Z,11.70
2023-05-09T05:29:29.686Z,11.90
2023-05-09T05:31:32.995Z,12.00
2023-05-09T05:33:36.359Z,11.90
2023-05-09T05:35:40.724Z,11.90
2023-05-09T05:37:46.528Z,11.90
2023-05-09T05:39:52.026Z,11.90
2023-05-09T05:41:55.427Z,11.80
2023-05-09T05:43:58.652Z,12.10
2023-05-09T05:46:02.005Z,12.30
2023-05-09T05:48:05.924Z,12.50
2023-05-09T05:50:12.354Z,12.70
2023-05-09T05:52:15.937Z,12.60
2023-05-09T05:54:20.618Z,12.60
2023-05-09T05:56:23.921Z,12.60
2023-05-09T05:58:28.035Z,12.80
2023-05-09T06:00:31.561Z,12.50
2023-05-09T06:02:35.079Z,12.40
2023-05-09T06:04:38.563Z,12.40
2023-05-09T06:06:41.999Z,12.40
2023-05-09T06:08:46.012Z,12.40
2023-05-09T06:10:50.737Z,12.10
2023-05-09T06:12:54.147Z,12.10
2023-05-09T06:14:57.526Z,12.10
2023-05-09T06:17:01.469Z,12.40
2023-05-09T06:19:04.917Z,12.60
2023-05-09T06:21:08.657Z,13.10
2023-05-09T06:23:11.909Z,13.30
2023-05-09T06:25:15.598Z,13.50
2023-05-09T06:27:20.789Z,13.90
2023-05-09T06:29:24.128Z,14.10
2023-05-09T06:31:27.472Z,14.20
2023-05-09T06:33:30.634Z,14.00
2023-05-09T06:35:34.319Z,14.10
2023-05-09T06:37:37.626Z,14.60
2023-05-09T06:39:40.874Z,15.40
2023-05-09T06:41:44.100Z,15.90
2023-05-09T06:43:50.019Z,16.00
2023-05-09T06:45:53.815Z,15.90
2023-05-09T06:47:57.280Z,16.10
2023-05-09T06:50:00.690Z,16.00
2023-05-09T06:52:04.051Z,16.30
2023-05-09T06:54:07.913Z,16.40
2023-05-09T06:56:11.410Z,16.20
2023-05-09T06:58:15.019Z,16.60
2023-05-09T07:00:20.585Z,16.90
2023-05-09T07:02:23.920Z,16.50
2023-05-09T07:04:27.743Z,16.60
2023-05-09T07:06:31.953Z,16.20
2023-05-09T07:08:35.447Z,16.00
2023-05-09T07:10:39.355Z,16.10
2023-05-09T07:12:43.096Z,16.10
2023-05-09T07:14:46.568Z,16.00
2023-05-09T07:16:51.662Z,16.00
2023-05-09T07:18:55.173Z,16.10
2023-05-09T07:20:58.880Z,16.40
2023-05-09T07:23:03.994Z,16.00
2023-05-09T07:25:09.478Z,16.10
2023-05-09T07:27:12.995Z,15.60
2023-05-09T07:29:17.975Z,15.60
2023-05-09T07:31:21.290Z,15.40
2023-05-09T07:33:26.347Z,15.30
2023-05-09T07:35:33.170Z,15.60
2023-05-09T07:37:36.822Z,15.60
2023-05-09T07:39:40.326Z,15.80
2023-05-09T07:41:43.493Z,15.70
2023-05-09T07:43:46.884Z,15.60
2023-05-09T07:45:50.564Z,15.80
2023-05-09T07:47:53.842Z,15.90
2023-05-09T07:49:58.758Z,16.10
2023-05-09T07:52:02.248Z,15.80
2023-05-09T07:54:05.686Z,16.00
2023-05-09T07:56:09.034Z,16.10
2023-05-09T07:58:12.327Z,16.40
2023-05-09T08:00:16.632Z,16.10
2023-05-09T08:02:20.089Z,16.30
2023-05-09T08:04:23.553Z,16.70
2023-05-09T08:06:28.182Z,17.00
2023-05-09T08:08:31.410Z,17.00
2023-05-09T08:10:35.001Z,17.20
2023-05-09T08:12:38.329Z,16.60
2023-05-09T08:14:41.821Z,16.20
2023-05-09T08:16:48.313Z,16.40
2023-05-09T08:18:51.596Z,16.80
2023-05-09T08:20:54.972Z,16.90
2023-05-09T08:22:59.694Z,16.60
2023-05-09T08:25:02.979Z,17.00
2023-05-09T08:27:06.683Z,16.30
2023-05-09T08:29:11.254Z,16.60
2023-05-09T08:31:14.658Z,16.20
2023-05-09T08:33:17.916Z,16.20
2023-05-09T08:35:21.213Z,16.30
2023-05-09T08:37:24.779Z,16.30
2023-05-09T08:39:29.730Z,16.70
2023-05-09T08:41:36.114Z,16.70
2023-05-09T08:43:41.574Z,16.70
2023-05-09T08:45:52.410Z,16.50
2023-05-09T08:47:56.157Z,16.50
2023-05-09T08:49:59.767Z,16.50
2023-05-09T08:52:03.504Z,16.60
2023-05-09T08:54:07.606Z,16.40
2023-05-09T08:56:12.777Z,16.10
2023-05-09T08:58:16.825Z,15.90
2023-05-09T09:00:21.668Z,16.10
2023-05-09T09:02:25.245Z,15.90
2023-05-09T09:04:29.010Z,16.00
2023-05-09T09:06:34.936Z,16.00
2023-05-09T09:08:38.235Z,15.90
2023-05-09T09:10:43.563Z,16.20
2023-05-09T09:12:50.257Z,15.70
2023-05-09T09:14:56.381Z,15.80
2023-05-09T09:17:00.229Z,15.70
2023-05-09T09:19:05.801Z,15.30
2023-05-09T09:21:15.608Z,15.80
2023-05-09T09:23:21.355Z,16.10
2023-05-09T09:25:24.593Z,16.40
2023-05-09T09:27:27.872Z,16.40
2023-05-09T09:29:33.937Z,16.70
2023-05-09T09:31:37.276Z,16.80
2023-05-09T09:33:40.839Z,16.20
2023-05-09T09:35:44.118Z,16.30
2023-05-09T09:37:47.601Z,16.40
2023-05-09T09:39:57.659Z,16.50
2023-05-09T09:42:11.801Z,16.50
2023-05-09T09:44:17.183Z,16.30
2023-05-09T09:46:21.804Z,16.40
2023-05-09T09:48:28.236Z,16.00
2023-05-09T09:50:31.615Z,16.20
2023-05-09T09:52:34.898Z,15.90
2023-05-09T09:54:39.871Z,16.10
2023-05-09T09:56:44.626Z,16.00
2023-05-09T09:58:48.024Z,16.20
2023-05-09T10:01:07.148Z,15.70
2023-05-09T10:03:16.722Z,15.60
2023-05-09T10:05:21.622Z,15.70
2023-05-09T10:07:25.547Z,15.20
2023-05-09T10:09:29.746Z,15.40
2023-05-09T10:11:34.202Z,15.50
2023-05-09T10:13:38.606Z,15.40
2023-05-09T10:15:53.029Z,15.20
2023-05-09T10:18:00.844Z,15.00
2023-05-09T10:20:07.254Z,15.20
2023-05-09T10:22:13.287Z,15.40
2023-05-09T10:24:19.282Z,15.60
2023-05-09T10:26:31.797Z,15.90
2023-05-09T10:28:37.046Z,15.60
2023-05-09T10:30:48.156Z,15.90
2023-05-09T10:32:55.594Z,16.10
2023-05-09T10:35:05.853Z,15.60
2023-05-09T10:37:11.850Z,15.70
2023-05-09T10:39:15.900Z,15.80
2023-05-09T10:41:19.871Z,16.30
2023-05-09T10:43:25.296Z,16.40
2023-05-09T10:45:29.241Z,16.20
2023-05-09T10:47:33.487Z,16.60
2023-05-09T10:49:37.353Z,16.20
2023-05-09T10:51:40.963Z,16.40
2023-05-09T10:53:47.861Z,16.50
2023-05-09T10:55:53.560Z,16.50
2023-05-09T10:57:57.092Z,16.50
2023-05-09T11:00:01.560Z,16.40
2023-05-09T11:02:05.923Z,16.50
2023-05-09T11:04:14.456Z,17.00
2023-05-09T11:06:43.591Z,17.10
2023-05-09T11:08:49.381Z,17.40
2023-05-09T12:11:32.973Z,21.80
2023-05-09T12:13:36.519Z,21.90
2023-05-09T12:15:43.287Z,21.90
2023-05-09T12:17:50.386Z,21.50
2023-05-09T12:19:54.489Z,21.80
2023-05-09T12:21:58.778Z,21.80
2023-05-09T12:24:02.214Z,21.60
2023-05-09T12:26:06.211Z,21.10
2023-05-09T12:28:09.643Z,21.10
2023-05-09T12:30:16.062Z,21.50
2023-05-09T12:32:21.050Z,21.00
2023-05-09T12:34:24.743Z,20.80
2023-05-09T12:36:28.133Z,20.40
2023-05-09T12:38:31.428Z,20.40
2023-05-09T12:40:38.169Z,20.00
2023-05-09T12:42:44.531Z,20.60
2023-05-09T12:44:50.565Z,19.90
2023-05-09T12:46:58.558Z,20.10
2023-05-09T12:49:03.227Z,20.00
2023-05-09T12:51:07.007Z,20.20
2023-05-09T12:53:10.292Z,19.20
2023-05-09T12:55:15.389Z,19.40
2023-05-09T12:57:31.430Z,19.60
2023-05-09T12:59:35.065Z,19.80
2023-05-09T13:01:38.607Z,19.70
2023-05-09T13:03:42.530Z,19.90
2023-05-09T13:05:55.870Z,19.90
2023-05-09T13:07:59.207Z,19.90
2023-05-09T13:10:02.735Z,19.70
2023-05-09T13:12:08.467Z,19.50
2023-05-09T13:14:11.865Z,19.60
2023-05-09T13:16:17.456Z,19.20
2023-05-09T13:18:21.562Z,19.40
2023-05-09T13:20:24.872Z,19.20
2023-05-09T13:22:29.568Z,19.10
2023-05-09T13:24:33.224Z,19.30
2023-05-09T13:26:36.633Z,18.90
2023-05-09T13:28:39.927Z,18.70
2023-05-09T13:30:43.347Z,18.70
2023-05-09T13:32:47.598Z,18.60
2023-05-09T13:34:50.965Z,18.60
2023-05-09T13:36:54.710Z,18.30
2023-05-09T13:39:02.552Z,18.40
2023-05-09T13:41:06.126Z,18.50
2023-05-09T13:43:09.432Z,18.50
2023-05-09T13:45:13.042Z,18.40
2023-05-09T13:47:16.620Z,18.40
2023-05-09T13:49:19.977Z,18.40
2023-05-09T13:51:23.681Z,18.30
2023-05-09T13:53:27.013Z,18.30
2023-05-09T13:55:31.586Z,18.40
2023-05-09T13:57:34.813Z,18.60
2023-05-09T13:59:38.606Z,18.90
2023-05-09T14:01:42.569Z,18.90
2023-05-09T14:03:47.388Z,19.30
2023-05-09T14:05:50.698Z,19.20
2023-05-09T14:07:53.917Z,19.50
2023-05-09T14:10:10.420Z,19.90
2023-05-09T14:12:16.505Z,19.80
2023-05-09T14:14:20.066Z,20.10
2023-05-09T14:16:23.576Z,20.20
2023-05-09T14:18:26.946Z,20.30
2023-05-09T14:20:30.150Z,20.20
2023-05-09T14:22:33.399Z,20.10
2023-05-09T14:24:36.690Z,19.70
2023-05-09T14:26:40.182Z,19.60
2023-05-09T14:28:45.893Z,19.40
2023-05-09T14:30:49.136Z,19.60
2023-05-09T14:32:52.447Z,19.50
2023-05-09T14:34:55.812Z,19.50
2023-05-09T14:36:59.028Z,19.50
2023-05-09T14:39:02.388Z,19.10
2023-05-09T14:41:07.057Z,19.10
2023-05-09T14:43:10.338Z,19.10
2023-05-09T14:45:15.756Z,19.00
2023-05-09T14:47:19.123Z,18.60
2023-05-09T14:49:22.421Z,18.80
2023-05-09T14:51:25.881Z,18.70
2023-05-09T14:53:29.403Z,19.00
2023-05-09T14:55:32.563Z,19.20
2023-05-09T14:57:35.925Z,19.20
2023-05-09T14:59:39.219Z,19.00
2023-05-09T15:01:45.715Z,18.90
2023-05-09T15:03:49.176Z,19.00
2023-05-09T15:05:53.033Z,19.10
2023-05-09T15:07:56.997Z,19.10
2023-05-09T15:10:00.238Z,18.60
2023-05-09T15:12:03.437Z,18.50
2023-05-09T15:14:06.991Z,18.70
2023-05-09T15:16:10.393Z,18.50
2023-05-09T15:18:16.712Z,18.50
2023-05-09T15:20:20.253Z,18.20
2023-05-09T15:22:23.700Z,18.30
2023-05-09T15:24:27.175Z,18.50
2023-05-09T15:26:30.652Z,18.10
2023-05-09T15:28:33.897Z,18.40
2023-05-09T15:30:38.905Z,18.40
2023-05-09T15:32:42.585Z,18.70
2023-05-09T15:34:56.310Z,18.50
2023-05-09T15:37:00.573Z,18.60
2023-05-09T15:39:05.155Z,18.30
2023-05-09T15:41:09.038Z,18.20
2023-05-09T15:43:13.046Z,18.20
2023-05-09T15:45:16.878Z,18.30
2023-05-09T15:47:20.199Z,18.50
2023-05-09T15:49:23.427Z,18.50
2023-05-09T15:51:30.070Z,18.70
2023-05-09T15:53:33.542Z,18.50
2023-05-09T15:55:37.594Z,18.60
2023-05-09T15:57:40.868Z,18.60
2023-05-09T15:59:44.079Z,18.30
2023-05-09T16:01:47.381Z,18.40
2023-05-09T16:03:50.847Z,18.20
2023-05-09T16:05:54.273Z,18.20
2023-05-09T16:07:59.085Z,18.00
2023-05-09T16:10:02.845Z,17.80
2023-05-09T16:12:07.514Z,17.80
2023-05-09T16:14:11.837Z,17.90
2023-05-09T16:16:15.237Z,18.30
2023-05-09T16:18:18.765Z,18.40
2023-05-09T16:20:22.121Z,18.40
2023-05-09T16:22:25.621Z,18.10
2023-05-09T16:24:31.713Z,18.00
2023-05-09T16:26:36.676Z,17.80
2023-05-09T16:28:40.281Z,17.80
2023-05-09T16:30:43.690Z,17.50
2023-05-09T16:32:47.129Z,17.50
2023-05-09T16:34:50.447Z,17.50
2023-05-09T16:36:53.696Z,17.70
2023-05-09T16:38:57.004Z,17.60
2023-05-09T16:41:03.581Z,17.80
2023-05-09T16:43:07.389Z,17.80
2023-05-09T16:45:11.331Z,17.60
2023-05-09T16:47:14.570Z,17.30
2023-05-09T16:49:17.993Z,17.50
2023-05-09T16:51:21.485Z,17.60
2023-05-09T16:53:27.686Z,17.60
2023-05-09T16:55:31.367Z,17.70
2023-05-09T16:57:36.203Z,17.50
2023-05-09T16:59:39.670Z,17.50
2023-05-09T17:01:43.439Z,17.40
2023-05-09T17:03:50.373Z,17.20
2023-05-09T17:05:53.634Z,17.10
2023-05-09T17:07:56.884Z,16.90
2023-05-09T17:10:00.107Z,16.70
2023-05-09T17:12:03.548Z,16.80
2023-05-09T17:14:08.504Z,16.70
2023-05-09T17:16:11.744Z,16.60
2023-05-09T17:18:22.146Z,16.50
2023-05-09T17:20:32.824Z,16.30
2023-05-09T17:22:37.135Z,16.30
2023-05-09T17:24:40.441Z,16.20
2023-05-09T17:26:43.660Z,16.00
2023-05-09T17:28:47.128Z,16.00
2023-05-09T17:30:51.832Z,16.00
2023-05-09T17:32:55.104Z,15.90
2023-05-09T17:34:58.474Z,15.80
2023-05-09T17:37:02.618Z,15.70
2023-05-09T17:39:07.265Z,15.70
2023-05-09T17:41:10.498Z,15.60
2023-05-09T17:43:14.529Z,15.60
2023-05-09T17:45:18.027Z,15.60
2023-05-09T17:47:22.876Z,15.60
2023-05-09T17:49:26.455Z,15.50
2023-05-09T17:51:29.781Z,15.30
2023-05-09T17:53:33.021Z,15.30
2023-05-09T17:55:36.284Z,15.20
2023-05-09T17:57:39.615Z,15.10
2023-05-09T17:59:42.834Z,15.00
2023-05-09T20:10:08.653Z,11.30
2023-05-09T20:12:13.127Z,11.10
2023-05-09T20:14:16.576Z,11.00
2023-05-09T20:32:56.777Z,10.40
2023-05-09T20:37:05.668Z,9.90
2023-05-09T20:39:11.624Z,9.90
2023-05-09T20:41:15.460Z,9.90
2023-05-09T20:43:19.198Z,9.90
2023-05-09T20:45:22.760Z,9.80
2023-05-09T20:47:26.184Z,9.90
2023-05-09T20:49:30.762Z,9.80
2023-05-09T20:51:34.133Z,9.80
2023-05-09T20:53:37.954Z,9.80
2023-05-09T20:55:41.152Z,9.80
2023-05-09T20:57:44.486Z,9.70
2023-05-09T20:59:47.731Z,9.60
2023-05-09T21:01:52.297Z,9.70
2023-05-09T21:03:55.796Z,9.60
2023-05-09T21:06:01.087Z,9.60
2023-05-09T21:08:04.468Z,9.50
2023-05-09T21:10:10.206Z,9.50
2023-05-09T21:12:13.513Z,9.50
2023-05-09T21:14:16.828Z,9.60
2023-05-09T21:16:20.310Z,9.50
2023-05-09T21:18:23.568Z,9.50
2023-05-09T21:20:26.920Z,9.50
2023-05-09T21:22:31.683Z,9.50
2023-05-09T21:24:35.196Z,9.50
2023-05-09T21:26:38.576Z,9.50
2023-05-09T21:28:42.475Z,9.70
2023-05-09T21:30:51.026Z,9.70
2023-05-09T21:32:54.497Z,9.70
2023-05-09T21:34:57.980Z,9.60
2023-05-09T21:37:01.682Z,9.80
2023-05-09T21:39:09.985Z,9.90
2023-05-09T21:41:13.270Z,9.90
2023-05-09T21:43:18.506Z,10.00
2023-05-09T21:45:21.632Z,10.10
2023-05-09T21:47:25.335Z,10.00
2023-05-09T21:49:29.440Z,10.00
2023-05-09T21:51:33.751Z,10.20
2023-05-09T21:53:37.030Z,10.30
2023-05-09T21:55:41.752Z,10.40
2023-05-09T21:57:45.019Z,10.40
2023-05-09T21:59:48.410Z,10.40
2023-05-09T22:01:51.959Z,10.50
2023-05-09T22:03:55.246Z,10.50
2023-05-09T22:05:58.817Z,10.50
2023-05-09T22:08:02.005Z,10.40
2023-05-09T22:10:06.000Z,10.40
2023-05-09T22:12:10.939Z,10.40
2023-05-09T22:14:14.200Z,10.50
2023-05-09T22:16:17.868Z,10.60
2023-05-09T22:18:21.202Z,10.60
2023-05-09T22:20:24.854Z,10.60
2023-05-09T22:22:31.964Z,10.60
2023-05-09T22:24:35.377Z,10.60
2023-05-09T22:26:38.650Z,10.60
2023-05-09T22:28:43.373Z,10.50
2023-05-09T22:30:47.221Z,10.50
2023-05-09T22:32:50.594Z,10.50
2023-05-09T22:34:55.190Z,10.40
2023-05-09T22:36:58.686Z,10.50
2023-05-09T22:39:05.288Z,10.50
2023-05-09T22:41:12.450Z,10.50
2023-05-09T22:43:15.668Z,10.50
2023-05-09T22:45:20.560Z,10.50
2023-05-09T22:47:23.852Z,10.60
2023-05-09T22:49:27.171Z,10.60
2023-05-09T22:51:30.645Z,10.60
2023-05-09T22:53:34.148Z,10.50
2023-05-09T22:55:37.614Z,10.50
2023-05-09T22:57:45.249Z,10.40
2023-05-09T22:59:48.713Z,10.30
2023-05-09T23:01:54.254Z,10.30
2023-05-09T23:03:57.574Z,10.30
2023-05-09T23:06:00.839Z,10.40
2023-05-09T23:08:04.387Z,10.30
2023-05-09T23:10:08.733Z,10.10
2023-05-09T23:12:12.037Z,10.10
2023-05-09T23:14:15.415Z,10.10
2023-05-09T23:16:19.060Z,10.00
2023-05-09T23:18:23.906Z,10.00
2023-05-09T23:20:27.592Z,10.00
2023-05-09T23:22:31.145Z,9.90
2023-05-09T23:24:34.374Z,9.70
2023-05-09T23:26:37.641Z,9.70
2023-05-09T23:28:40.903Z,9.70
2023-05-09T23:32:47.951Z,9.30
2023-05-09T23:34:52.825Z,9.30
2023-05-09T23:36:56.114Z,9.30
2023-05-09T23:38:59.724Z,9.10
2023-05-09T23:41:02.922Z,9.10
2023-05-09T23:43:06.205Z,8.90
2023-05-09T23:45:11.013Z,8.90
2023-05-09T23:47:14.517Z,8.90
2023-05-09T23:49:17.690Z,8.70
2023-05-09T23:51:22.759Z,8.70
2023-05-09T23:53:26.235Z,8.80
2023-05-09T23:55:29.981Z,8.70
2023-05-09T23:59:36.923Z,8.60
